Terminal Aerodrome Forecast
Issued by NWS Chicago, IL

Home | Current Version | Previous Version | Text Only | Print | Product List | Glossary Off
Versions: 1 2 3 4 5 6 7 8 9 10 11 12 13 14 15 16 17 18 19 20 21 22 23 24 25 26 27 28 29 30 31

000
FTUS43 KLOT 191120
TAFRFD
TAF
KRFD 191120Z 1912/2012 17008KT 4SM BR SCT008 OVC012
     FM191400 15006KT 1 1/2SM -SHRA BR OVC004
      TEMPO 1915/1919 1/2SM -DZ FG OVC002
     FM191900 20014G21KT 2SM -RA BR BKN008 OVC012 WS020/22050KT
     FM200200 22010KT 3/4SM SHRA BR VCTS OVC006CB
     FM201000 VRB05KT 1/2SM -RA FG OVC003=

USA.gov is the U.S. government's official web portal to all federal, state and local government web resources and services.